sensor_id;sensor_type;location;lat;lon;timestamp;P1;durP1;ratioP1;P2;durP2;ratioP2
75152;SDS011;63734;45.218;36.708;2022-12-13T00:01:15;8.32;;;4.22;;
75152;SDS011;63734;45.218;36.708;2022-12-13T00:03:42;6.00;;;3.58;;
75152;SDS011;63734;45.218;36.708;2022-12-13T00:06:09;8.43;;;4.07;;
75152;SDS011;63734;45.218;36.708;2022-12-13T00:08:36;6.85;;;4.22;;
75152;SDS011;63734;45.218;36.708;2022-12-13T00:11:04;7.43;;;3.90;;
75152;SDS011;63734;45.218;36.708;2022-12-13T00:13:33;8.38;;;3.58;;
75152;SDS011;63734;45.218;36.708;2022-12-13T00:16:00;8.43;;;4.05;;
75152;SDS011;63734;45.218;36.708;2022-12-13T00:18:27;4.20;;;2.97;;
75152;SDS011;63734;45.218;36.708;2022-12-13T00:20:54;6.55;;;3.72;;
75152;SDS011;63734;45.218;36.708;2022-12-13T00:23:20;9.05;;;4.35;;
75152;SDS011;63734;45.218;36.708;2022-12-13T00:25:46;8.15;;;3.35;;
75152;SDS011;63734;45.218;36.708;2022-12-13T00:28:12;5.60;;;3.42;;
75152;SDS011;63734;45.218;36.708;2022-12-13T00:30:39;9.93;;;3.35;;
75152;SDS011;63734;45.218;36.708;2022-12-13T00:33:05;4.97;;;3.85;;
75152;SDS011;63734;45.218;36.708;2022-12-13T00:35:32;5.60;;;3.22;;
75152;SDS011;63734;45.218;36.708;2022-12-13T00:37:58;4.68;;;3.05;;
75152;SDS011;63734;45.218;36.708;2022-12-13T00:40:26;8.55;;;4.20;;
75152;SDS011;63734;45.218;36.708;2022-12-13T00:42:53;8.23;;;3.75;;
75152;SDS011;63734;45.218;36.708;2022-12-13T00:45:19;6.85;;;3.75;;
75152;SDS011;63734;45.218;36.708;2022-12-13T00:47:45;6.72;;;3.85;;
75152;SDS011;63734;45.218;36.708;2022-12-13T00:50:11;5.95;;;3.97;;
75152;SDS011;63734;45.218;36.708;2022-12-13T00:52:37;8.63;;;4.32;;
75152;SDS011;63734;45.218;36.708;2022-12-13T00:55:03;7.85;;;3.90;;
75152;SDS011;63734;45.218;36.708;2022-12-13T00:57:29;5.22;;;3.83;;
75152;SDS011;63734;45.218;36.708;2022-12-13T00:59:55;7.57;;;3.67;;
75152;SDS011;63734;45.218;36.708;2022-12-13T01:02:21;7.63;;;4.15;;
75152;SDS011;63734;45.218;36.708;2022-12-13T01:04:50;8.45;;;4.32;;
75152;SDS011;63734;45.218;36.708;2022-12-13T01:07:16;10.00;;;4.55;;
75152;SDS011;63734;45.218;36.708;2022-12-13T01:09:42;9.18;;;4.85;;
75152;SDS011;63734;45.218;36.708;2022-12-13T01:12:09;6.35;;;4.22;;
75152;SDS011;63734;45.218;36.708;2022-12-13T01:14:38;10.25;;;4.03;;
75152;SDS011;63734;45.218;36.708;2022-12-13T01:17:05;7.53;;;3.92;;
75152;SDS011;63734;45.218;36.708;2022-12-13T01:19:32;5.60;;;4.18;;
75152;SDS011;63734;45.218;36.708;2022-12-13T01:22:02;7.60;;;4.80;;
75152;SDS011;63734;45.218;36.708;2022-12-13T01:24:29;10.20;;;5.25;;
75152;SDS011;63734;45.218;36.708;2022-12-13T01:26:56;7.95;;;4.70;;
75152;SDS011;63734;45.218;36.708;2022-12-13T01:29:23;7.68;;;4.72;;
75152;SDS011;63734;45.218;36.708;2022-12-13T01:31:50;10.35;;;5.50;;
75152;SDS011;63734;45.218;36.708;2022-12-13T01:34:17;8.35;;;4.88;;
75152;SDS011;63734;45.218;36.708;2022-12-13T01:36:44;8.25;;;4.80;;
75152;SDS011;63734;45.218;36.708;2022-12-13T01:39:12;8.30;;;4.88;;
75152;SDS011;63734;45.218;36.708;2022-12-13T01:41:40;8.60;;;4.60;;
75152;SDS011;63734;45.218;36.708;2022-12-13T01:47:10;7.20;;;4.05;;
75152;SDS011;63734;45.218;36.708;2022-12-13T01:49:39;6.50;;;4.05;;
75152;SDS011;63734;45.218;36.708;2022-12-13T01:52:07;8.02;;;4.80;;
75152;SDS011;63734;45.218;36.708;2022-12-13T01:54:36;9.93;;;5.22;;
75152;SDS011;63734;45.218;36.708;2022-12-13T01:57:05;7.13;;;4.45;;
75152;SDS011;63734;45.218;36.708;2022-12-13T01:59:35;7.68;;;4.97;;
75152;SDS011;63734;45.218;36.708;2022-12-13T02:02:02;9.70;;;4.97;;
75152;SDS011;63734;45.218;36.708;2022-12-13T02:04:33;9.18;;;5.25;;
75152;SDS011;63734;45.218;36.708;2022-12-13T02:07:05;11.88;;;5.18;;
75152;SDS011;63734;45.218;36.708;2022-12-13T02:09:32;8.52;;;4.75;;
75152;SDS011;63734;45.218;36.708;2022-12-13T02:12:00;7.80;;;4.72;;
75152;SDS011;63734;45.218;36.708;2022-12-13T02:14:28;8.35;;;4.90;;
75152;SDS011;63734;45.218;36.708;2022-12-13T02:23:12;9.30;;;5.38;;
75152;SDS011;63734;45.218;36.708;2022-12-13T02:31:54;11.45;;;6.28;;
75152;SDS011;63734;45.218;36.708;2022-12-13T02:34:25;11.25;;;6.05;;
75152;SDS011;63734;45.218;36.708;2022-12-13T02:37:08;10.15;;;5.68;;
75152;SDS011;63734;45.218;36.708;2022-12-13T02:39:41;9.07;;;5.03;;
75152;SDS011;63734;45.218;36.708;2022-12-13T02:42:17;4.90;;;3.28;;
75152;SDS011;63734;45.218;36.708;2022-12-13T02:47:40;9.27;;;5.22;;
75152;SDS011;63734;45.218;36.708;2022-12-13T02:50:10;9.45;;;5.13;;
75152;SDS011;63734;45.218;36.708;2022-12-13T02:52:39;10.43;;;5.55;;
75152;SDS011;63734;45.218;36.708;2022-12-13T02:55:10;9.90;;;5.00;;
75152;SDS011;63734;45.218;36.708;2022-12-13T02:57:41;12.25;;;5.10;;
75152;SDS011;63734;45.218;36.708;2022-12-13T03:00:11;9.68;;;5.50;;
75152;SDS011;63734;45.218;36.708;2022-12-13T03:11:36;12.30;;;6.10;;
75152;SDS011;63734;45.218;36.708;2022-12-13T03:14:34;9.18;;;5.65;;
75152;SDS011;63734;45.218;36.708;2022-12-13T03:17:06;6.70;;;3.78;;
75152;SDS011;63734;45.218;36.708;2022-12-13T03:19:33;6.65;;;3.90;;
75152;SDS011;63734;45.218;36.708;2022-12-13T03:22:00;9.40;;;4.75;;
75152;SDS011;63734;45.218;36.708;2022-12-13T03:24:30;12.18;;;6.57;;
75152;SDS011;63734;45.218;36.708;2022-12-13T03:26:56;9.43;;;5.75;;
75152;SDS011;63734;45.218;36.708;2022-12-13T03:29:22;11.00;;;5.78;;
75152;SDS011;63734;45.218;36.708;2022-12-13T03:31:48;8.30;;;4.35;;
75152;SDS011;63734;45.218;36.708;2022-12-13T03:34:14;9.57;;;4.30;;
75152;SDS011;63734;45.218;36.708;2022-12-13T03:36:40;13.02;;;6.50;;
75152;SDS011;63734;45.218;36.708;2022-12-13T03:39:06;11.23;;;5.00;;
75152;SDS011;63734;45.218;36.708;2022-12-13T03:41:32;13.88;;;5.88;;
75152;SDS011;63734;45.218;36.708;2022-12-13T03:43:59;10.57;;;5.72;;
75152;SDS011;63734;45.218;36.708;2022-12-13T03:46:28;11.80;;;5.50;;
75152;SDS011;63734;45.218;36.708;2022-12-13T03:48:54;9.13;;;4.93;;
75152;SDS011;63734;45.218;36.708;2022-12-13T03:51:20;11.77;;;6.45;;
75152;SDS011;63734;45.218;36.708;2022-12-13T03:53:46;15.68;;;6.40;;
75152;SDS011;63734;45.218;36.708;2022-12-13T03:56:13;15.77;;;5.93;;
75152;SDS011;63734;45.218;36.708;2022-12-13T03:58:39;11.60;;;5.55;;
75152;SDS011;63734;45.218;36.708;2022-12-13T04:01:10;7.00;;;3.72;;
75152;SDS011;63734;45.218;36.708;2022-12-13T04:03:38;8.38;;;4.43;;
75152;SDS011;63734;45.218;36.708;2022-12-13T04:06:06;12.35;;;5.60;;
75152;SDS011;63734;45.218;36.708;2022-12-13T04:08:33;12.25;;;6.18;;
75152;SDS011;63734;45.218;36.708;2022-12-13T04:11:00;7.55;;;3.92;;
75152;SDS011;63734;45.218;36.708;2022-12-13T04:13:51;8.05;;;4.22;;
75152;SDS011;63734;45.218;36.708;2022-12-13T04:16:17;9.48;;;4.93;;
75152;SDS011;63734;45.218;36.708;2022-12-13T04:18:43;8.35;;;3.53;;
75152;SDS011;63734;45.218;36.708;2022-12-13T04:21:09;9.75;;;4.88;;
75152;SDS011;63734;45.218;36.708;2022-12-13T04:23:35;12.68;;;5.70;;
75152;SDS011;63734;45.218;36.708;2022-12-13T04:26:01;9.95;;;4.55;;
75152;SDS011;63734;45.218;36.708;2022-12-13T04:28:28;7.13;;;3.90;;
75152;SDS011;63734;45.218;36.708;2022-12-13T04:30:53;7.57;;;3.63;;
75152;SDS011;63734;45.218;36.708;2022-12-13T04:33:20;9.95;;;4.95;;
75152;SDS011;63734;45.218;36.708;2022-12-13T04:35:47;7.30;;;4.78;;
75152;SDS011;63734;45.218;36.708;2022-12-13T04:38:13;12.13;;;5.40;;
75152;SDS011;63734;45.218;36.708;2022-12-13T04:40:39;7.45;;;4.50;;
75152;SDS011;63734;45.218;36.708;2022-12-13T04:43:05;9.77;;;4.78;;
75152;SDS011;63734;45.218;36.708;2022-12-13T04:45:31;8.57;;;4.95;;
75152;SDS011;63734;45.218;36.708;2022-12-13T04:47:57;10.55;;;4.97;;
75152;SDS011;63734;45.218;36.708;2022-12-13T04:50:23;8.65;;;4.75;;
75152;SDS011;63734;45.218;36.708;2022-12-13T04:52:49;11.90;;;6.10;;
75152;SDS011;63734;45.218;36.708;2022-12-13T04:55:15;8.35;;;4.35;;
75152;SDS011;63734;45.218;36.708;2022-12-13T04:57:41;10.52;;;5.53;;
75152;SDS011;63734;45.218;36.708;2022-12-13T05:00:08;17.77;;;6.20;;
75152;SDS011;63734;45.218;36.708;2022-12-13T05:02:37;10.95;;;5.32;;
75152;SDS011;63734;45.218;36.708;2022-12-13T05:05:06;8.18;;;4.72;;
75152;SDS011;63734;45.218;36.708;2022-12-13T05:07:33;5.95;;;3.53;;
75152;SDS011;63734;45.218;36.708;2022-12-13T05:09:59;8.13;;;4.20;;
75152;SDS011;63734;45.218;36.708;2022-12-13T05:12:25;7.07;;;4.00;;
75152;SDS011;63734;45.218;36.708;2022-12-13T05:14:52;8.73;;;3.83;;
75152;SDS011;63734;45.218;36.708;2022-12-13T05:17:18;6.10;;;2.88;;
75152;SDS011;63734;45.218;36.708;2022-12-13T05:19:44;10.75;;;4.90;;
75152;SDS011;63734;45.218;36.708;2022-12-13T05:22:11;9.93;;;5.30;;
75152;SDS011;63734;45.218;36.708;2022-12-13T05:24:43;9.70;;;4.90;;
75152;SDS011;63734;45.218;36.708;2022-12-13T05:27:09;7.43;;;4.47;;
75152;SDS011;63734;45.218;36.708;2022-12-13T05:29:36;7.65;;;4.72;;
75152;SDS011;63734;45.218;36.708;2022-12-13T05:32:02;4.35;;;3.10;;
75152;SDS011;63734;45.218;36.708;2022-12-13T05:34:29;6.35;;;3.58;;
75152;SDS011;63734;45.218;36.708;2022-12-13T05:36:55;9.07;;;4.68;;
75152;SDS011;63734;45.218;36.708;2022-12-13T05:39:21;8.88;;;4.57;;
75152;SDS011;63734;45.218;36.708;2022-12-13T05:41:47;6.72;;;3.60;;
75152;SDS011;63734;45.218;36.708;2022-12-13T05:44:13;8.57;;;4.05;;
75152;SDS011;63734;45.218;36.708;2022-12-13T05:46:39;7.38;;;3.85;;
75152;SDS011;63734;45.218;36.708;2022-12-13T05:49:05;12.48;;;5.40;;
75152;SDS011;63734;45.218;36.708;2022-12-13T05:51:31;10.82;;;5.65;;
75152;SDS011;63734;45.218;36.708;2022-12-13T05:53:57;11.35;;;5.53;;
75152;SDS011;63734;45.218;36.708;2022-12-13T05:56:23;9.02;;;5.05;;
75152;SDS011;63734;45.218;36.708;2022-12-13T05:58:49;7.85;;;5.20;;
75152;SDS011;63734;45.218;36.708;2022-12-13T06:01:15;11.15;;;5.40;;
75152;SDS011;63734;45.218;36.708;2022-12-13T06:03:41;11.38;;;4.97;;
75152;SDS011;63734;45.218;36.708;2022-12-13T06:06:08;10.13;;;5.30;;
75152;SDS011;63734;45.218;36.708;2022-12-13T06:08:35;9.20;;;4.50;;
75152;SDS011;63734;45.218;36.708;2022-12-13T06:11:02;10.57;;;5.35;;
75152;SDS011;63734;45.218;36.708;2022-12-13T06:13:29;10.63;;;4.20;;
75152;SDS011;63734;45.218;36.708;2022-12-13T06:15:59;9.25;;;4.90;;
75152;SDS011;63734;45.218;36.708;2022-12-13T06:18:28;7.00;;;3.80;;
75152;SDS011;63734;45.218;36.708;2022-12-13T06:20:56;7.43;;;4.60;;
75152;SDS011;63734;45.218;36.708;2022-12-13T06:23:23;13.30;;;5.95;;
75152;SDS011;63734;45.218;36.708;2022-12-13T06:25:49;5.70;;;3.35;;
75152;SDS011;63734;45.218;36.708;2022-12-13T06:28:15;7.35;;;4.00;;
75152;SDS011;63734;45.218;36.708;2022-12-13T06:30:42;11.23;;;5.47;;
75152;SDS011;63734;45.218;36.708;2022-12-13T06:33:08;9.15;;;5.50;;
75152;SDS011;63734;45.218;36.708;2022-12-13T06:35:35;13.35;;;6.55;;
75152;SDS011;63734;45.218;36.708;2022-12-13T06:38:01;14.52;;;6.85;;
75152;SDS011;63734;45.218;36.708;2022-12-13T06:40:27;12.98;;;6.45;;
75152;SDS011;63734;45.218;36.708;2022-12-13T06:42:54;11.40;;;5.45;;
75152;SDS011;63734;45.218;36.708;2022-12-13T06:45:20;7.28;;;3.90;;
75152;SDS011;63734;45.218;36.708;2022-12-13T06:47:46;6.88;;;4.07;;
75152;SDS011;63734;45.218;36.708;2022-12-13T06:50:12;10.30;;;5.22;;
75152;SDS011;63734;45.218;36.708;2022-12-13T06:52:39;5.45;;;3.40;;
75152;SDS011;63734;45.218;36.708;2022-12-13T06:55:05;8.68;;;4.32;;
75152;SDS011;63734;45.218;36.708;2022-12-13T06:57:31;8.40;;;4.50;;
75152;SDS011;63734;45.218;36.708;2022-12-13T06:59:58;7.57;;;3.85;;
75152;SDS011;63734;45.218;36.708;2022-12-13T07:02:25;4.53;;;3.10;;
75152;SDS011;63734;45.218;36.708;2022-12-13T07:04:51;5.82;;;2.95;;
75152;SDS011;63734;45.218;36.708;2022-12-13T07:07:18;14.75;;;6.22;;
75152;SDS011;63734;45.218;36.708;2022-12-13T07:09:44;7.30;;;4.35;;
75152;SDS011;63734;45.218;36.708;2022-12-13T07:12:10;8.02;;;3.75;;
75152;SDS011;63734;45.218;36.708;2022-12-13T07:14:36;7.32;;;4.32;;
75152;SDS011;63734;45.218;36.708;2022-12-13T07:17:02;11.05;;;5.45;;
75152;SDS011;63734;45.218;36.708;2022-12-13T07:19:29;9.57;;;5.15;;
75152;SDS011;63734;45.218;36.708;2022-12-13T07:21:55;10.02;;;4.97;;
75152;SDS011;63734;45.218;36.708;2022-12-13T07:24:21;6.13;;;4.22;;
75152;SDS011;63734;45.218;36.708;2022-12-13T07:26:48;6.80;;;3.30;;
75152;SDS011;63734;45.218;36.708;2022-12-13T07:29:14;6.25;;;3.97;;
75152;SDS011;63734;45.218;36.708;2022-12-13T07:31:39;7.13;;;3.45;;
75152;SDS011;63734;45.218;36.708;2022-12-13T07:34:05;6.10;;;3.75;;
75152;SDS011;63734;45.218;36.708;2022-12-13T07:36:31;7.18;;;4.60;;
75152;SDS011;63734;45.218;36.708;2022-12-13T07:38:57;6.53;;;3.85;;
75152;SDS011;63734;45.218;36.708;2022-12-13T07:41:24;9.90;;;4.70;;
75152;SDS011;63734;45.218;36.708;2022-12-13T07:43:52;8.02;;;3.85;;
75152;SDS011;63734;45.218;36.708;2022-12-13T07:46:20;8.48;;;4.80;;
75152;SDS011;63734;45.218;36.708;2022-12-13T07:48:46;8.38;;;4.00;;
75152;SDS011;63734;45.218;36.708;2022-12-13T07:51:12;16.15;;;6.10;;
75152;SDS011;63734;45.218;36.708;2022-12-13T07:53:38;9.30;;;6.47;;
75152;SDS011;63734;45.218;36.708;2022-12-13T07:56:06;14.20;;;8.07;;
75152;SDS011;63734;45.218;36.708;2022-12-13T07:58:34;13.50;;;8.05;;
75152;SDS011;63734;45.218;36.708;2022-12-13T08:01:04;8.05;;;4.32;;
75152;SDS011;63734;45.218;36.708;2022-12-13T08:03:58;11.18;;;6.68;;
75152;SDS011;63734;45.218;36.708;2022-12-13T08:06:24;16.48;;;8.50;;
75152;SDS011;63734;45.218;36.708;2022-12-13T08:08:54;13.10;;;9.68;;
75152;SDS011;63734;45.218;36.708;2022-12-13T08:11:21;14.07;;;8.43;;
75152;SDS011;63734;45.218;36.708;2022-12-13T08:13:47;17.00;;;8.77;;
75152;SDS011;63734;45.218;36.708;2022-12-13T08:16:13;9.85;;;6.57;;
75152;SDS011;63734;45.218;36.708;2022-12-13T08:18:42;12.88;;;8.27;;
75152;SDS011;63734;45.218;36.708;2022-12-13T08:21:09;14.35;;;10.05;;
75152;SDS011;63734;45.218;36.708;2022-12-13T08:23:35;13.23;;;7.60;;
75152;SDS011;63734;45.218;36.708;2022-12-13T08:26:02;12.90;;;7.88;;
75152;SDS011;63734;45.218;36.708;2022-12-13T08:28:29;11.43;;;7.88;;
75152;SDS011;63734;45.218;36.708;2022-12-13T08:31:01;15.63;;;7.50;;
75152;SDS011;63734;45.218;36.708;2022-12-13T08:33:28;13.52;;;8.32;;
75152;SDS011;63734;45.218;36.708;2022-12-13T08:35:54;9.60;;;5.22;;
75152;SDS011;63734;45.218;36.708;2022-12-13T08:38:21;11.30;;;6.38;;
75152;SDS011;63734;45.218;36.708;2022-12-13T08:40:49;10.70;;;6.57;;
75152;SDS011;63734;45.218;36.708;2022-12-13T08:43:15;9.20;;;4.18;;
75152;SDS011;63734;45.218;36.708;2022-12-13T08:45:40;4.57;;;3.30;;
75152;SDS011;63734;45.218;36.708;2022-12-13T08:48:07;4.55;;;2.20;;
75152;SDS011;63734;45.218;36.708;2022-12-13T08:50:33;7.18;;;3.30;;
75152;SDS011;63734;45.218;36.708;2022-12-13T08:52:59;5.00;;;3.55;;
75152;SDS011;63734;45.218;36.708;2022-12-13T08:55:25;7.35;;;3.05;;
75152;SDS011;63734;45.218;36.708;2022-12-13T08:57:51;9.02;;;3.10;;
75152;SDS011;63734;45.218;36.708;2022-12-13T09:00:17;5.47;;;3.83;;
75152;SDS011;63734;45.218;36.708;2022-12-13T09:02:44;7.97;;;2.67;;
75152;SDS011;63734;45.218;36.708;2022-12-13T09:05:11;3.85;;;2.70;;
75152;SDS011;63734;45.218;36.708;2022-12-13T09:07:37;5.68;;;3.15;;
75152;SDS011;63734;45.218;36.708;2022-12-13T09:10:08;5.20;;;2.78;;
75152;SDS011;63734;45.218;36.708;2022-12-13T09:12:34;6.53;;;3.60;;
75152;SDS011;63734;45.218;36.708;2022-12-13T09:15:00;6.30;;;3.22;;
75152;SDS011;63734;45.218;36.708;2022-12-13T09:17:26;5.97;;;4.07;;
75152;SDS011;63734;45.218;36.708;2022-12-13T09:19:55;7.55;;;4.00;;
75152;SDS011;63734;45.218;36.708;2022-12-13T09:22:21;8.55;;;3.65;;
75152;SDS011;63734;45.218;36.708;2022-12-13T09:24:47;6.68;;;3.55;;
75152;SDS011;63734;45.218;36.708;2022-12-13T09:27:13;6.63;;;3.33;;
75152;SDS011;63734;45.218;36.708;2022-12-13T09:29:39;5.18;;;3.55;;
75152;SDS011;63734;45.218;36.708;2022-12-13T09:32:05;7.15;;;3.90;;
75152;SDS011;63734;45.218;36.708;2022-12-13T09:34:31;7.53;;;3.85;;
75152;SDS011;63734;45.218;36.708;2022-12-13T09:36:57;7.85;;;3.38;;
75152;SDS011;63734;45.218;36.708;2022-12-13T09:39:23;4.60;;;3.40;;
75152;SDS011;63734;45.218;36.708;2022-12-13T09:41:50;9.15;;;4.15;;
75152;SDS011;63734;45.218;36.708;2022-12-13T09:44:26;11.55;;;5.40;;
75152;SDS011;63734;45.218;36.708;2022-12-13T09:46:55;8.38;;;4.15;;
75152;SDS011;63734;45.218;36.708;2022-12-13T09:49:33;10.27;;;6.18;;
75152;SDS011;63734;45.218;36.708;2022-12-13T09:52:04;10.75;;;5.25;;
75152;SDS011;63734;45.218;36.708;2022-12-13T09:54:31;10.90;;;5.30;;
75152;SDS011;63734;45.218;36.708;2022-12-13T09:56:58;6.65;;;4.07;;
75152;SDS011;63734;45.218;36.708;2022-12-13T09:59:29;7.85;;;4.53;;
75152;SDS011;63734;45.218;36.708;2022-12-13T10:02:01;8.52;;;5.95;;
75152;SDS011;63734;45.218;36.708;2022-12-13T10:04:38;10.75;;;6.75;;
75152;SDS011;63734;45.218;36.708;2022-12-13T10:07:09;10.48;;;6.20;;
75152;SDS011;63734;45.218;36.708;2022-12-13T10:09:41;13.65;;;5.53;;
75152;SDS011;63734;45.218;36.708;2022-12-13T10:12:09;11.98;;;7.18;;
75152;SDS011;63734;45.218;36.708;2022-12-13T10:14:39;13.43;;;6.82;;
75152;SDS011;63734;45.218;36.708;2022-12-13T10:17:13;14.07;;;8.27;;
75152;SDS011;63734;45.218;36.708;2022-12-13T10:19:44;16.00;;;8.88;;
75152;SDS011;63734;45.218;36.708;2022-12-13T10:22:14;17.50;;;10.05;;
75152;SDS011;63734;45.218;36.708;2022-12-13T10:24:52;16.17;;;10.07;;
75152;SDS011;63734;45.218;36.708;2022-12-13T10:27:33;15.60;;;9.77;;
75152;SDS011;63734;45.218;36.708;2022-12-13T10:32:59;16.08;;;9.82;;
75152;SDS011;63734;45.218;36.708;2022-12-13T10:40:41;16.33;;;11.18;;
75152;SDS011;63734;45.218;36.708;2022-12-13T10:43:11;13.98;;;8.02;;
75152;SDS011;63734;45.218;36.708;2022-12-13T10:51:15;20.88;;;11.70;;
75152;SDS011;63734;45.218;36.708;2022-12-13T10:53:51;20.83;;;10.80;;
75152;SDS011;63734;45.218;36.708;2022-12-13T10:56:31;17.70;;;10.13;;
75152;SDS011;63734;45.218;36.708;2022-12-13T10:59:11;18.88;;;9.60;;
75152;SDS011;63734;45.218;36.708;2022-12-13T11:01:50;23.73;;;10.98;;
75152;SDS011;63734;45.218;36.708;2022-12-13T11:04:27;24.63;;;13.25;;
75152;SDS011;63734;45.218;36.708;2022-12-13T11:07:01;17.25;;;8.77;;
75152;SDS011;63734;45.218;36.708;2022-12-13T11:09:47;23.65;;;12.10;;
75152;SDS011;63734;45.218;36.708;2022-12-13T11:12:14;18.58;;;10.10;;
75152;SDS011;63734;45.218;36.708;2022-12-13T11:17:24;15.45;;;8.00;;
75152;SDS011;63734;45.218;36.708;2022-12-13T11:19:53;26.42;;;12.15;;
75152;SDS011;63734;45.218;36.708;2022-12-13T11:22:29;17.52;;;9.05;;
75152;SDS011;63734;45.218;36.708;2022-12-13T11:25:02;22.55;;;12.73;;
75152;SDS011;63734;45.218;36.708;2022-12-13T11:38:31;22.05;;;11.85;;
75152;SDS011;63734;45.218;36.708;2022-12-13T11:41:02;16.13;;;8.13;;
75152;SDS011;63734;45.218;36.708;2022-12-13T11:43:36;30.15;;;15.35;;
75152;SDS011;63734;45.218;36.708;2022-12-13T11:46:12;29.30;;;16.45;;
75152;SDS011;63734;45.218;36.708;2022-12-13T11:48:50;26.90;;;14.60;;
75152;SDS011;63734;45.218;36.708;2022-12-13T11:51:23;21.35;;;13.02;;
75152;SDS011;63734;45.218;36.708;2022-12-13T11:56:26;28.13;;;14.95;;
75152;SDS011;63734;45.218;36.708;2022-12-13T12:01:54;25.88;;;12.40;;
75152;SDS011;63734;45.218;36.708;2022-12-13T12:04:55;27.67;;;11.23;;
75152;SDS011;63734;45.218;36.708;2022-12-13T12:07:34;22.17;;;12.27;;
75152;SDS011;63734;45.218;36.708;2022-12-13T12:12:34;26.15;;;10.75;;
75152;SDS011;63734;45.218;36.708;2022-12-13T12:15:13;19.30;;;10.00;;
75152;SDS011;63734;45.218;36.708;2022-12-13T12:18:01;24.25;;;9.75;;
75152;SDS011;63734;45.218;36.708;2022-12-13T12:26:12;27.92;;;10.00;;
75152;SDS011;63734;45.218;36.708;2022-12-13T12:28:50;20.00;;;10.10;;
75152;SDS011;63734;45.218;36.708;2022-12-13T12:31:35;18.58;;;8.52;;
75152;SDS011;63734;45.218;36.708;2022-12-13T12:39:28;23.63;;;10.25;;
75152;SDS011;63734;45.218;36.708;2022-12-13T12:45:15;22.05;;;8.50;;
75152;SDS011;63734;45.218;36.708;2022-12-13T12:50:44;16.05;;;7.93;;
75152;SDS011;63734;45.218;36.708;2022-12-13T12:53:22;17.45;;;7.70;;
75152;SDS011;63734;45.218;36.708;2022-12-13T12:56:00;24.25;;;9.23;;
75152;SDS011;63734;45.218;36.708;2022-12-13T12:58:40;46.28;;;25.13;;
75152;SDS011;63734;45.218;36.708;2022-12-13T13:04:04;98.22;;;58.13;;
75152;SDS011;63734;45.218;36.708;2022-12-13T13:06:40;30.20;;;16.95;;
75152;SDS011;63734;45.218;36.708;2022-12-13T13:09:10;25.52;;;11.48;;
75152;SDS011;63734;45.218;36.708;2022-12-13T13:11:40;18.13;;;7.32;;
75152;SDS011;63734;45.218;36.708;2022-12-13T13:16:58;20.45;;;9.00;;
75152;SDS011;63734;45.218;36.708;2022-12-13T13:20:10;21.40;;;9.50;;
75152;SDS011;63734;45.218;36.708;2022-12-13T13:22:36;25.33;;;9.85;;
75152;SDS011;63734;45.218;36.708;2022-12-13T13:27:42;24.13;;;9.35;;
75152;SDS011;63734;45.218;36.708;2022-12-13T13:32:46;15.98;;;7.82;;
75152;SDS011;63734;45.218;36.708;2022-12-13T13:38:03;1.20;;;0.80;;
75152;SDS011;63734;45.218;36.708;2022-12-13T13:40:50;0.65;;;0.40;;
75152;SDS011;63734;45.218;36.708;2022-12-13T13:43:16;0.55;;;0.50;;
75152;SDS011;63734;45.218;36.708;2022-12-13T13:48:37;3.92;;;0.80;;
75152;SDS011;63734;45.218;36.708;2022-12-13T13:51:51;1.80;;;0.63;;
75152;SDS011;63734;45.218;36.708;2022-12-13T13:57:12;0.60;;;0.43;;
75152;SDS011;63734;45.218;36.708;2022-12-13T14:08:24;1.23;;;0.75;;
75152;SDS011;63734;45.218;36.708;2022-12-13T14:22:54;4.15;;;0.50;;
75152;SDS011;63734;45.218;36.708;2022-12-13T14:25:59;1.45;;;0.90;;
75152;SDS011;63734;45.218;36.708;2022-12-13T14:28:52;2.25;;;1.02;;
75152;SDS011;63734;45.218;36.708;2022-12-13T14:34:22;1.00;;;0.93;;
75152;SDS011;63734;45.218;36.708;2022-12-13T14:36:59;0.87;;;0.57;;
75152;SDS011;63734;45.218;36.708;2022-12-13T14:39:27;1.67;;;0.93;;
75152;SDS011;63734;45.218;36.708;2022-12-13T14:41:56;1.00;;;0.60;;
75152;SDS011;63734;45.218;36.708;2022-12-13T14:44:25;1.55;;;0.88;;
75152;SDS011;63734;45.218;36.708;2022-12-13T14:47:01;0.70;;;0.50;;
75152;SDS011;63734;45.218;36.708;2022-12-13T14:49:30;1.88;;;0.85;;
75152;SDS011;63734;45.218;36.708;2022-12-13T14:52:05;0.70;;;0.70;;
75152;SDS011;63734;45.218;36.708;2022-12-13T14:54:55;0.60;;;0.47;;
75152;SDS011;63734;45.218;36.708;2022-12-13T14:57:31;2.28;;;0.80;;
75152;SDS011;63734;45.218;36.708;2022-12-13T14:59:59;1.45;;;0.60;;
75152;SDS011;63734;45.218;36.708;2022-12-13T15:02:28;1.70;;;0.55;;
75152;SDS011;63734;45.218;36.708;2022-12-13T15:04:57;1.58;;;0.70;;
75152;SDS011;63734;45.218;36.708;2022-12-13T15:07:35;2.92;;;0.65;;
75152;SDS011;63734;45.218;36.708;2022-12-13T15:10:05;3.25;;;0.90;;
75152;SDS011;63734;45.218;36.708;2022-12-13T15:12:47;2.15;;;0.60;;
75152;SDS011;63734;45.218;36.708;2022-12-13T15:15:23;1.52;;;0.60;;
75152;SDS011;63734;45.218;36.708;2022-12-13T15:18:14;1.42;;;0.50;;
75152;SDS011;63734;45.218;36.708;2022-12-13T15:20:48;0.32;;;0.30;;
75152;SDS011;63734;45.218;36.708;2022-12-13T15:23:22;0.68;;;0.60;;
75152;SDS011;63734;45.218;36.708;2022-12-13T15:26:00;0.82;;;0.63;;
75152;SDS011;63734;45.218;36.708;2022-12-13T15:28:38;0.38;;;0.30;;
75152;SDS011;63734;45.218;36.708;2022-12-13T15:31:07;1.05;;;0.40;;
75152;SDS011;63734;45.218;36.708;2022-12-13T15:33:33;5.10;;;0.70;;
75152;SDS011;63734;45.218;36.708;2022-12-13T15:38:32;0.90;;;0.70;;
75152;SDS011;63734;45.218;36.708;2022-12-13T15:40:58;1.83;;;0.80;;
75152;SDS011;63734;45.218;36.708;2022-12-13T15:43:41;0.57;;;0.57;;
75152;SDS011;63734;45.218;36.708;2022-12-13T15:46:10;4.00;;;0.87;;
75152;SDS011;63734;45.218;36.708;2022-12-13T15:48:38;0.75;;;0.75;;
75152;SDS011;63734;45.218;36.708;2022-12-13T15:51:08;4.10;;;0.90;;
75152;SDS011;63734;45.218;36.708;2022-12-13T15:53:37;3.05;;;1.35;;
75152;SDS011;63734;45.218;36.708;2022-12-13T15:59:25;2.78;;;1.30;;
75152;SDS011;63734;45.218;36.708;2022-12-13T16:01:59;2.35;;;1.20;;
75152;SDS011;63734;45.218;36.708;2022-12-13T16:04:28;3.20;;;1.00;;
75152;SDS011;63734;45.218;36.708;2022-12-13T16:07:00;2.22;;;1.20;;
75152;SDS011;63734;45.218;36.708;2022-12-13T16:09:27;2.25;;;0.90;;
75152;SDS011;63734;45.218;36.708;2022-12-13T16:11:58;2.85;;;1.42;;
75152;SDS011;63734;45.218;36.708;2022-12-13T16:17:09;3.45;;;1.60;;
75152;SDS011;63734;45.218;36.708;2022-12-13T16:19:49;2.83;;;1.50;;
75152;SDS011;63734;45.218;36.708;2022-12-13T16:22:19;4.00;;;2.08;;
75152;SDS011;63734;45.218;36.708;2022-12-13T16:24:48;4.00;;;1.65;;
75152;SDS011;63734;45.218;36.708;2022-12-13T16:27:15;6.45;;;2.17;;
75152;SDS011;63734;45.218;36.708;2022-12-13T16:29:42;4.95;;;1.90;;
75152;SDS011;63734;45.218;36.708;2022-12-13T16:32:09;4.47;;;1.92;;
75152;SDS011;63734;45.218;36.708;2022-12-13T16:34:35;2.15;;;1.17;;
75152;SDS011;63734;45.218;36.708;2022-12-13T16:37:02;2.72;;;1.20;;
75152;SDS011;63734;45.218;36.708;2022-12-13T16:39:29;6.25;;;1.30;;
75152;SDS011;63734;45.218;36.708;2022-12-13T16:41:55;2.90;;;0.93;;
75152;SDS011;63734;45.218;36.708;2022-12-13T16:44:24;2.47;;;1.00;;
75152;SDS011;63734;45.218;36.708;2022-12-13T16:46:57;2.95;;;0.90;;
75152;SDS011;63734;45.218;36.708;2022-12-13T16:49:26;3.45;;;1.10;;
75152;SDS011;63734;45.218;36.708;2022-12-13T16:51:54;2.60;;;1.02;;
75152;SDS011;63734;45.218;36.708;2022-12-13T16:54:21;2.28;;;1.02;;